AZU4336 SBCF-SBPS
Flight info
| Callsign | AZU4336 |
|---|---|
| Flight time | 1h 0m |
| Altitude | 37000 |
| Route | KADOR DCT POSMU DCT OSUNO |
| Aircraft | A20N/M-SDE2E3FGHIRWXY/LB1 |
Departure
| Time | 2026-05-01 14:26 |
|---|---|
| Airport | Tancredo Neves International Airport (SBCF) |
Arrival
| Time | 2026-05-01 15:27 |
|---|---|
| Airport | Porto Seguro International Airport (SBPS) |
| Time | Latitude | Longitude | Altitude | Speed | Heading |
|---|---|---|---|---|---|
| 2026-05-01 14:12 | -19.63247 | -43.96444 | 2722 ft | 0 kts | 68° |
| 2026-05-01 14:19 | -19.63254 | -43.96462 | 2732 ft | 2 kts | 67° |
| 2026-05-01 14:19 | -19.63261 | -43.96477 | 2732 ft | 2 kts | 65° |
| 2026-05-01 14:19 | -19.63268 | -43.96492 | 2729 ft | 2 kts | 51° |
| 2026-05-01 14:19 | -19.63281 | -43.96499 | 2735 ft | 1 kts | 339° |
| 2026-05-01 14:20 | -19.63283 | -43.96498 | 2735 ft | 0 kts | 338° |
| 2026-05-01 14:21 | -19.63239 | -43.96518 | 2728 ft | 17 kts | 334° |
| 2026-05-01 14:21 | -19.63208 | -43.96602 | 2732 ft | 15 kts | 248° |
| 2026-05-01 14:22 | -19.63174 | -43.96824 | 2722 ft | 17 kts | 319° |
| 2026-05-01 14:22 | -19.63111 | -43.96883 | 2727 ft | 19 kts | 317° |
| 2026-05-01 14:22 | -19.63009 | -43.96978 | 2731 ft | 21 kts | 319° |
| 2026-05-01 14:22 | -19.62900 | -43.97080 | 2727 ft | 20 kts | 319° |
| 2026-05-01 14:23 | -19.62800 | -43.97174 | 2726 ft | 20 kts | 319° |
| 2026-05-01 14:23 | -19.62691 | -43.97275 | 2727 ft | 22 kts | 319° |
| 2026-05-01 14:23 | -19.62571 | -43.97383 | 2727 ft | 24 kts | 319° |
| 2026-05-01 14:23 | -19.62444 | -43.97503 | 2726 ft | 25 kts | 319° |
| 2026-05-01 14:24 | -19.62309 | -43.97627 | 2722 ft | 26 kts | 319° |
| 2026-05-01 14:24 | -19.62250 | -43.97743 | 2722 ft | 10 kts | 245° |
| 2026-05-01 14:24 | -19.62261 | -43.97757 | 2729 ft | 3 kts | 223° |
| 2026-05-01 14:24 | -19.62350 | -43.97780 | 2727 ft | 16 kts | 180° |
| 2026-05-01 14:25 | -19.62409 | -43.97757 | 2726 ft | 0 kts | 139° |
| 2026-05-01 14:25 | -19.62420 | -43.97747 | 2722 ft | 4 kts | 138° |
| 2026-05-01 14:25 | -19.62427 | -43.97741 | 2725 ft | 0 kts | 138° |
| 2026-05-01 14:25 | -19.62520 | -43.97654 | 2727 ft | 57 kts | 139° |
| 2026-05-01 14:26 | -19.63036 | -43.97181 | 2727 ft | 134 kts | 139° |
| 2026-05-01 14:26 | -19.64850 | -43.95514 | 3661 ft | 197 kts | 136° |
| 2026-05-01 14:26 | -19.65925 | -43.94459 | 4325 ft | 222 kts | 134° |
| 2026-05-01 14:27 | -19.67083 | -43.93320 | 5008 ft | 240 kts | 136° |
| 2026-05-01 14:27 | -19.68414 | -43.92104 | 5550 ft | 261 kts | 137° |
| 2026-05-01 14:27 | -19.69837 | -43.90832 | 6385 ft | 268 kts | 137° |
| 2026-05-01 14:28 | -19.72452 | -43.88010 | 8162 ft | 275 kts | 116° |
| 2026-05-01 14:28 | -19.73014 | -43.86086 | 8739 ft | 280 kts | 94° |
| 2026-05-01 14:28 | -19.72773 | -43.84044 | 8967 ft | 281 kts | 69° |
| 2026-05-01 14:28 | -19.71724 | -43.82308 | 9188 ft | 283 kts | 46° |
| 2026-05-01 14:29 | -19.70292 | -43.80854 | 9258 ft | 284 kts | 44° |
| 2026-05-01 14:29 | -19.68869 | -43.79429 | 9257 ft | 283 kts | 44° |
| 2026-05-01 14:30 | -19.64604 | -43.75115 | 9253 ft | 281 kts | 45° |
| 2026-05-01 14:30 | -19.63191 | -43.73674 | 9248 ft | 282 kts | 45° |
| 2026-05-01 14:30 | -19.61783 | -43.72201 | 9246 ft | 282 kts | 49° |
| 2026-05-01 14:31 | -19.59272 | -43.68959 | 9932 ft | 289 kts | 51° |
| 2026-05-01 14:31 | -19.57994 | -43.67307 | 10145 ft | 290 kts | 51° |
| 2026-05-01 14:31 | -19.56710 | -43.65652 | 10204 ft | 288 kts | 51° |
| 2026-05-01 14:31 | -19.55461 | -43.64044 | 10204 ft | 284 kts | 51° |
| 2026-05-01 14:32 | -19.54185 | -43.62401 | 10206 ft | 293 kts | 51° |
| 2026-05-01 14:32 | -19.52813 | -43.60634 | 10198 ft | 323 kts | 51° |
| 2026-05-01 14:32 | -19.51362 | -43.58767 | 10190 ft | 336 kts | 51° |
| 2026-05-01 14:32 | -19.49896 | -43.56826 | 10375 ft | 336 kts | 53° |
| 2026-05-01 14:33 | -19.48463 | -43.54840 | 11000 ft | 338 kts | 53° |
| 2026-05-01 14:33 | -19.47053 | -43.52868 | 11767 ft | 340 kts | 53° |
| 2026-05-01 14:33 | -19.45606 | -43.50848 | 12428 ft | 346 kts | 53° |
| 2026-05-01 14:33 | -19.44143 | -43.48819 | 13043 ft | 352 kts | 53° |
| 2026-05-01 14:34 | -19.42633 | -43.46733 | 13697 ft | 357 kts | 53° |
| 2026-05-01 14:34 | -19.41097 | -43.44616 | 14274 ft | 363 kts | 53° |
| 2026-05-01 14:34 | -19.39567 | -43.42509 | 14884 ft | 366 kts | 53° |
| 2026-05-01 14:34 | -19.38002 | -43.40346 | 15495 ft | 370 kts | 53° |
| 2026-05-01 14:35 | -19.36437 | -43.38183 | 16081 ft | 374 kts | 53° |
| 2026-05-01 14:35 | -19.34835 | -43.35971 | 16662 ft | 377 kts | 57° |
| 2026-05-01 14:35 | -19.33307 | -43.33701 | 17123 ft | 382 kts | 60° |
| 2026-05-01 14:35 | -19.31781 | -43.31365 | 17634 ft | 385 kts | 59° |
| 2026-05-01 14:36 | -19.30204 | -43.29097 | 18221 ft | 387 kts | 50° |
| 2026-05-01 14:36 | -19.28461 | -43.26893 | 18694 ft | 391 kts | 49° |
| 2026-05-01 14:36 | -19.26688 | -43.24676 | 19190 ft | 394 kts | 50° |
| 2026-05-01 14:36 | -19.24966 | -43.22445 | 19666 ft | 397 kts | 51° |
| 2026-05-01 14:37 | -19.23239 | -43.20130 | 20150 ft | 400 kts | 51° |
| 2026-05-01 14:37 | -19.21541 | -43.17809 | 20616 ft | 403 kts | 52° |
| 2026-05-01 14:37 | -19.19839 | -43.15464 | 21095 ft | 406 kts | 52° |
| 2026-05-01 14:37 | -19.18106 | -43.13070 | 21564 ft | 409 kts | 52° |
| 2026-05-01 14:38 | -19.16364 | -43.10664 | 22047 ft | 412 kts | 52° |
| 2026-05-01 14:38 | -19.14633 | -43.08276 | 22505 ft | 415 kts | 52° |
| 2026-05-01 14:38 | -19.12868 | -43.05845 | 22967 ft | 418 kts | 52° |
| 2026-05-01 14:38 | -19.11081 | -43.03386 | 23424 ft | 421 kts | 52° |
| 2026-05-01 14:39 | -19.09307 | -43.00947 | 23848 ft | 424 kts | 52° |
| 2026-05-01 14:39 | -19.07494 | -42.98455 | 24228 ft | 427 kts | 52° |
| 2026-05-01 14:39 | -19.05666 | -42.95944 | 24613 ft | 430 kts | 52° |
| 2026-05-01 14:39 | -19.03849 | -42.93449 | 24981 ft | 433 kts | 52° |
| 2026-05-01 14:40 | -19.01995 | -42.90906 | 25355 ft | 435 kts | 52° |
| 2026-05-01 14:40 | -19.00159 | -42.88389 | 25717 ft | 438 kts | 52° |
| 2026-05-01 14:40 | -18.98284 | -42.85819 | 26071 ft | 441 kts | 52° |
| 2026-05-01 14:40 | -18.96394 | -42.83232 | 26438 ft | 444 kts | 52° |
| 2026-05-01 14:41 | -18.94515 | -42.80659 | 26789 ft | 446 kts | 52° |
| 2026-05-01 14:41 | -18.92700 | -42.78023 | 27110 ft | 449 kts | 57° |
| 2026-05-01 14:41 | -18.91144 | -42.75147 | 27442 ft | 452 kts | 62° |
| 2026-05-01 14:41 | -18.89668 | -42.72201 | 27785 ft | 454 kts | 62° |
| 2026-05-01 14:42 | -18.88177 | -42.69240 | 28122 ft | 456 kts | 62° |
| 2026-05-01 14:42 | -18.86686 | -42.66291 | 28429 ft | 459 kts | 62° |
| 2026-05-01 14:42 | -18.85175 | -42.63307 | 28755 ft | 462 kts | 62° |
| 2026-05-01 14:42 | -18.83644 | -42.60284 | 29073 ft | 464 kts | 62° |
| 2026-05-01 14:43 | -18.82131 | -42.57300 | 29353 ft | 467 kts | 62° |
| 2026-05-01 14:43 | -18.80591 | -42.54264 | 29660 ft | 469 kts | 62° |
| 2026-05-01 14:43 | -18.79057 | -42.51240 | 29981 ft | 471 kts | 62° |
| 2026-05-01 14:43 | -18.77498 | -42.48169 | 30260 ft | 474 kts | 62° |
| 2026-05-01 14:44 | -18.75927 | -42.45075 | 30539 ft | 476 kts | 62° |
| 2026-05-01 14:44 | -18.72758 | -42.38918 | 31077 ft | 481 kts | 62° |
| 2026-05-01 14:44 | -18.71150 | -42.35820 | 31395 ft | 482 kts | 62° |
| 2026-05-01 14:45 | -18.69542 | -42.32721 | 31800 ft | 481 kts | 62° |
| 2026-05-01 14:45 | -18.66353 | -42.26566 | 32669 ft | 477 kts | 62° |
| 2026-05-01 14:45 | -18.64778 | -42.23526 | 33060 ft | 475 kts | 62° |
| 2026-05-01 14:46 | -18.63186 | -42.20455 | 33444 ft | 474 kts | 62° |
| 2026-05-01 14:46 | -18.60017 | -42.14346 | 34192 ft | 472 kts | 62° |
| 2026-05-01 14:46 | -18.58455 | -42.11338 | 34486 ft | 471 kts | 62° |
| 2026-05-01 14:47 | -18.56886 | -42.08318 | 34770 ft | 471 kts | 62° |
| 2026-05-01 14:47 | -18.55307 | -42.05279 | 35054 ft | 470 kts | 62° |
| 2026-05-01 14:47 | -18.53751 | -42.02287 | 35311 ft | 470 kts | 62° |
| 2026-05-01 14:48 | -18.50601 | -41.96233 | 35868 ft | 468 kts | 62° |
| 2026-05-01 14:48 | -18.49046 | -41.93246 | 36119 ft | 468 kts | 62° |
| 2026-05-01 14:48 | -18.45926 | -41.87260 | 36632 ft | 467 kts | 62° |
| 2026-05-01 14:49 | -18.42806 | -41.81279 | 37084 ft | 466 kts | 62° |
| 2026-05-01 14:49 | -18.39678 | -41.75290 | 37144 ft | 464 kts | 62° |
| 2026-05-01 14:50 | -18.33442 | -41.63368 | 37136 ft | 465 kts | 62° |
| 2026-05-01 14:51 | -18.28768 | -41.54447 | 37130 ft | 465 kts | 62° |
| 2026-05-01 14:52 | -18.24079 | -41.45510 | 37147 ft | 465 kts | 62° |
| 2026-05-01 14:53 | -18.19393 | -41.36592 | 37153 ft | 465 kts | 62° |
| 2026-05-01 14:53 | -18.16258 | -41.30631 | 37148 ft | 465 kts | 62° |
| 2026-05-01 14:54 | -18.13139 | -41.24708 | 37134 ft | 464 kts | 62° |
| 2026-05-01 14:54 | -18.10003 | -41.18758 | 37132 ft | 464 kts | 62° |
| 2026-05-01 14:55 | -18.06884 | -41.12846 | 37134 ft | 463 kts | 62° |
| 2026-05-01 14:55 | -18.03764 | -41.06937 | 37131 ft | 463 kts | 62° |
| 2026-05-01 14:56 | -18.00643 | -41.01031 | 37141 ft | 462 kts | 62° |
| 2026-05-01 14:56 | -17.97504 | -40.95098 | 37122 ft | 462 kts | 62° |
| 2026-05-01 14:57 | -17.94382 | -40.89201 | 37125 ft | 462 kts | 62° |
| 2026-05-01 14:57 | -17.89715 | -40.80397 | 37122 ft | 461 kts | 62° |
| 2026-05-01 14:58 | -17.86593 | -40.74516 | 37123 ft | 461 kts | 62° |
| 2026-05-01 14:58 | -17.83471 | -40.68638 | 37119 ft | 461 kts | 62° |
| 2026-05-01 14:59 | -17.80353 | -40.62773 | 37116 ft | 461 kts | 62° |
| 2026-05-01 14:59 | -17.77232 | -40.56909 | 37123 ft | 460 kts | 62° |
| 2026-05-01 15:00 | -17.72558 | -40.48135 | 37126 ft | 460 kts | 62° |
| 2026-05-01 15:01 | -17.69418 | -40.42249 | 37116 ft | 460 kts | 62° |
| 2026-05-01 15:01 | -17.66307 | -40.36422 | 36772 ft | 456 kts | 62° |
| 2026-05-01 15:01 | -17.64750 | -40.33507 | 36197 ft | 456 kts | 62° |
| 2026-05-01 15:02 | -17.63205 | -40.30616 | 35511 ft | 458 kts | 62° |
| 2026-05-01 15:02 | -17.62676 | -40.29627 | 35266 ft | 459 kts | 62° |
| 2026-05-01 15:02 | -17.60081 | -40.24776 | 34070 ft | 462 kts | 63° |
| 2026-05-01 15:02 | -17.59015 | -40.22784 | 33517 ft | 463 kts | 63° |
| 2026-05-01 15:03 | -17.56914 | -40.18859 | 32487 ft | 465 kts | 62° |
| 2026-05-01 15:03 | -17.55325 | -40.15891 | 31701 ft | 466 kts | 62° |
| 2026-05-01 15:03 | -17.53744 | -40.12942 | 30919 ft | 468 kts | 62° |
| 2026-05-01 15:03 | -17.52156 | -40.09979 | 30209 ft | 468 kts | 62° |
| 2026-05-01 15:04 | -17.50562 | -40.07010 | 29575 ft | 463 kts | 62° |
| 2026-05-01 15:04 | -17.49006 | -40.04111 | 28996 ft | 458 kts | 62° |
| 2026-05-01 15:04 | -17.47454 | -40.01221 | 28403 ft | 453 kts | 62° |
| 2026-05-01 15:04 | -17.45911 | -39.98347 | 27820 ft | 448 kts | 62° |
| 2026-05-01 15:05 | -17.44199 | -39.95612 | 27224 ft | 446 kts | 52° |
| 2026-05-01 15:05 | -17.42048 | -39.93304 | 26674 ft | 443 kts | 41° |
| 2026-05-01 15:05 | -17.39541 | -39.91497 | 26118 ft | 441 kts | 30° |
| 2026-05-01 15:05 | -17.36805 | -39.90019 | 25591 ft | 437 kts | 28° |
| 2026-05-01 15:06 | -17.34105 | -39.88565 | 25064 ft | 433 kts | 28° |
| 2026-05-01 15:06 | -17.31459 | -39.87134 | 24550 ft | 429 kts | 28° |
| 2026-05-01 15:06 | -17.29699 | -39.86181 | 24211 ft | 427 kts | 28° |
| 2026-05-01 15:06 | -17.26213 | -39.84294 | 23515 ft | 422 kts | 28° |
| 2026-05-01 15:07 | -17.23620 | -39.82891 | 22945 ft | 417 kts | 29° |
| 2026-05-01 15:07 | -17.21907 | -39.81965 | 22571 ft | 414 kts | 29° |
| 2026-05-01 15:07 | -17.19350 | -39.80582 | 22006 ft | 410 kts | 29° |
| 2026-05-01 15:07 | -17.16843 | -39.79228 | 21466 ft | 406 kts | 29° |
| 2026-05-01 15:08 | -17.14341 | -39.77876 | 20926 ft | 403 kts | 29° |
| 2026-05-01 15:08 | -17.11849 | -39.76530 | 20382 ft | 399 kts | 29° |
| 2026-05-01 15:08 | -17.09416 | -39.75216 | 19873 ft | 395 kts | 29° |
| 2026-05-01 15:08 | -17.06971 | -39.73897 | 19353 ft | 392 kts | 29° |
| 2026-05-01 15:09 | -17.04553 | -39.72592 | 18848 ft | 388 kts | 29° |
| 2026-05-01 15:09 | -17.02183 | -39.71291 | 18372 ft | 385 kts | 32° |
| 2026-05-01 15:09 | -16.99921 | -39.69870 | 17829 ft | 381 kts | 33° |
| 2026-05-01 15:09 | -16.97653 | -39.68440 | 17285 ft | 377 kts | 33° |
| 2026-05-01 15:10 | -16.95405 | -39.67025 | 16779 ft | 374 kts | 33° |
| 2026-05-01 15:10 | -16.90996 | -39.64256 | 15744 ft | 367 kts | 33° |
| 2026-05-01 15:10 | -16.88838 | -39.62903 | 15537 ft | 351 kts | 33° |
| 2026-05-01 15:11 | -16.86793 | -39.61622 | 15362 ft | 331 kts | 33° |
| 2026-05-01 15:11 | -16.83086 | -39.59299 | 15089 ft | 296 kts | 33° |
| 2026-05-01 15:11 | -16.81355 | -39.58213 | 14848 ft | 286 kts | 33° |
| 2026-05-01 15:12 | -16.79663 | -39.57149 | 14409 ft | 282 kts | 34° |
| 2026-05-01 15:12 | -16.76330 | -39.55055 | 13390 ft | 278 kts | 34° |
| 2026-05-01 15:12 | -16.74672 | -39.54014 | 12891 ft | 275 kts | 33° |
| 2026-05-01 15:13 | -16.70135 | -39.50539 | 11395 ft | 267 kts | 39° |
| 2026-05-01 15:14 | -16.67186 | -39.48205 | 10497 ft | 263 kts | 39° |
| 2026-05-01 15:14 | -16.65744 | -39.47064 | 10033 ft | 261 kts | 39° |
| 2026-05-01 15:14 | -16.62876 | -39.44798 | 8987 ft | 257 kts | 39° |
| 2026-05-01 15:15 | -16.60040 | -39.42556 | 7983 ft | 254 kts | 39° |
| 2026-05-01 15:15 | -16.57236 | -39.40341 | 7042 ft | 249 kts | 39° |
| 2026-05-01 15:16 | -16.54473 | -39.38158 | 6041 ft | 249 kts | 40° |
| 2026-05-01 15:16 | -16.51742 | -39.36002 | 5108 ft | 246 kts | 40° |
| 2026-05-01 15:17 | -16.49667 | -39.33390 | 4329 ft | 234 kts | 82° |
| 2026-05-01 15:18 | -16.51734 | -39.29186 | 3680 ft | 232 kts | 152° |
| 2026-05-01 15:18 | -16.53280 | -39.28756 | 3608 ft | 229 kts | 175° |
| 2026-05-01 15:19 | -16.57246 | -39.31223 | 3023 ft | 240 kts | 241° |
| 2026-05-01 15:19 | -16.57357 | -39.34556 | 2996 ft | 230 kts | 296° |
| 2026-05-01 15:19 | -16.56391 | -39.35915 | 3015 ft | 239 kts | 322° |
| 2026-05-01 15:20 | -16.53389 | -39.36771 | 3005 ft | 227 kts | 15° |
| 2026-05-01 15:20 | -16.51953 | -39.36158 | 3004 ft | 222 kts | 39° |
| 2026-05-01 15:20 | -16.50732 | -39.35147 | 3020 ft | 226 kts | 46° |
| 2026-05-01 15:21 | -16.49911 | -39.33766 | 2982 ft | 225 kts | 78° |
| 2026-05-01 15:21 | -16.49701 | -39.32176 | 2988 ft | 219 kts | 88° |
| 2026-05-01 15:21 | -16.49588 | -39.30644 | 2991 ft | 203 kts | 86° |
| 2026-05-01 15:21 | -16.49408 | -39.29231 | 3004 ft | 201 kts | 83° |
| 2026-05-01 15:22 | -16.48792 | -39.26353 | 3006 ft | 202 kts | 78° |
| 2026-05-01 15:22 | -16.48428 | -39.24973 | 3022 ft | 189 kts | 76° |
| 2026-05-01 15:22 | -16.48080 | -39.23702 | 2993 ft | 174 kts | 77° |
| 2026-05-01 15:23 | -16.47757 | -39.22513 | 2947 ft | 174 kts | 77° |
| 2026-05-01 15:23 | -16.47426 | -39.21307 | 2787 ft | 169 kts | 76° |
| 2026-05-01 15:23 | -16.47094 | -39.20179 | 2616 ft | 162 kts | 77° |
| 2026-05-01 15:23 | -16.47079 | -39.20127 | 2613 ft | 163 kts | 77° |
| 2026-05-01 15:24 | -16.46825 | -39.19180 | 2469 ft | 167 kts | 77° |
| 2026-05-01 15:24 | -16.46521 | -39.18035 | 2211 ft | 160 kts | 78° |
| 2026-05-01 15:24 | -16.46224 | -39.16913 | 1941 ft | 160 kts | 78° |
| 2026-05-01 15:24 | -16.45909 | -39.15805 | 1707 ft | 155 kts | 76° |
| 2026-05-01 15:25 | -16.45623 | -39.14793 | 1509 ft | 142 kts | 78° |
| 2026-05-01 15:25 | -16.45378 | -39.13784 | 1344 ft | 145 kts | 80° |
| 2026-05-01 15:25 | -16.45115 | -39.12776 | 1069 ft | 142 kts | 76° |
| 2026-05-01 15:25 | -16.44850 | -39.11809 | 812 ft | 138 kts | 77° |
| 2026-05-01 15:26 | -16.44603 | -39.10852 | 575 ft | 136 kts | 76° |
| 2026-05-01 15:26 | -16.44342 | -39.09906 | 380 ft | 134 kts | 76° |
| 2026-05-01 15:26 | -16.44086 | -39.08976 | 197 ft | 131 kts | 77° |
| 2026-05-01 15:26 | -16.43862 | -39.08128 | 170 ft | 110 kts | 77° |
| 2026-05-01 15:27 | -16.43686 | -39.07486 | 168 ft | 63 kts | 74° |
| 2026-05-01 15:27 | -16.43629 | -39.07234 | 163 ft | 16 kts | 51° |
| 2026-05-01 15:27 | -16.43621 | -39.07259 | 164 ft | 11 kts | 249° |
| 2026-05-01 15:28 | -16.43700 | -39.07539 | 168 ft | 24 kts | 256° |
| 2026-05-01 15:28 | -16.43748 | -39.07714 | 169 ft | 26 kts | 254° |
| 2026-05-01 15:28 | -16.43801 | -39.07900 | 168 ft | 28 kts | 253° |
| 2026-05-01 15:29 | -16.43934 | -39.08135 | 170 ft | 15 kts | 164° |
| 2026-05-01 15:29 | -16.44012 | -39.08099 | 170 ft | 7 kts | 115° |
| 2026-05-01 15:29 | -16.44042 | -39.08071 | 170 ft | 0 kts | 165° |